Time;durP1;ratioP1;P1;durP2;ratioP2;P2;SDS_P1;SDS_P2;PMS_P1;PMS_P2;Temp;Humidity;BMP_temperature;BMP_pressure;BME280_temperature;BME280_humidity;BME280_pressure;Samples;Min_cycle;Max_cycle;Signal;HPM_P1;HPM_P2
2024/03/01 00:02:13;;;;;;;28.27;12.63;;;7.40;99.90;;;;;;5018064;28;20044;-68
2024/03/01 00:04:39;;;;;;;31.30;12.40;;;7.40;99.90;;;;;;5018133;28;20728;-68
2024/03/01 00:07:05;;;;;;;32.03;13.90;;;7.40;99.90;;;;;;5018281;28;20025;-69
2024/03/01 00:09:31;;;;;;;31.70;12.68;;;7.40;99.90;;;;;;5018456;28;20804;-68
2024/03/01 00:11:57;;;;;;;28.02;11.60;;;7.30;99.90;;;;;;5017944;28;20040;-68
2024/03/01 00:14:22;;;;;;;31.02;13.00;;;7.40;99.90;;;;;;5018682;28;20505;-69
2024/03/01 00:16:48;;;;;;;32.30;13.52;;;7.30;99.90;;;;;;5018179;28;20061;-68
2024/03/01 00:19:14;;;;;;;31.95;13.02;;;7.20;99.90;;;;;;5019749;28;20040;-68
2024/03/01 00:21:40;;;;;;;22.23;11.05;;;7.30;99.90;;;;;;5016933;28;20408;-68
2024/03/01 00:24:07;;;;;;;24.55;11.88;;;7.20;99.90;;;;;;5017854;28;20025;-68
2024/03/01 00:26:33;;;;;;;27.73;12.73;;;7.30;99.90;;;;;;5017312;28;20116;-69
2024/03/01 00:28:59;;;;;;;29.08;12.65;;;7.20;99.90;;;;;;5018295;28;20152;-69
2024/03/01 00:31:25;;;;;;;30.55;12.27;;;7.30;99.90;;;;;;5019360;28;20497;-68
2024/03/01 00:33:51;;;;;;;29.65;13.02;;;7.30;99.90;;;;;;5018070;28;20056;-69
2024/03/01 00:36:17;;;;;;;27.85;12.23;;;7.30;99.90;;;;;;5018128;28;20084;-69
2024/03/01 00:38:43;;;;;;;29.33;12.32;;;7.20;99.90;;;;;;5016958;28;20690;-68
2024/03/01 00:41:08;;;;;;;28.73;12.10;;;7.20;99.90;;;;;;5014283;28;20125;-69
2024/03/01 00:43:35;;;;;;;31.90;13.52;;;7.10;99.90;;;;;;5017174;28;20132;-68
2024/03/01 00:46:00;;;;;;;38.65;13.50;;;7.10;99.90;;;;;;5019338;28;20095;-68
2024/03/01 00:48:26;;;;;;;31.13;12.57;;;7.10;99.90;;;;;;5034141;28;20034;-68
2024/03/01 00:50:52;;;;;;;32.28;13.30;;;7.10;99.90;;;;;;5016295;28;20025;-68
2024/03/01 00:53:18;;;;;;;32.25;13.73;;;7.10;99.90;;;;;;5016219;28;20843;-68
2024/03/01 00:55:44;;;;;;;31.42;13.68;;;7.10;99.90;;;;;;5015362;28;20029;-68
2024/03/01 00:58:09;;;;;;;36.78;14.45;;;7.10;99.90;;;;;;5018284;28;20075;-68
2024/03/01 01:00:36;;;;;;;34.10;14.13;;;7.10;99.90;;;;;;5018397;28;20041;-68
2024/03/01 01:03:01;;;;;;;36.65;15.38;;;7.10;99.90;;;;;;5019111;28;20068;-68
2024/03/01 01:05:28;;;;;;;47.17;16.75;;;7.20;99.90;;;;;;5017945;28;20132;-68
2024/03/01 01:07:54;;;;;;;43.00;16.17;;;7.20;99.90;;;;;;5015821;28;20049;-69
2024/03/01 01:10:20;;;;;;;41.17;17.02;;;7.30;99.90;;;;;;5017020;28;20496;-68
2024/03/01 01:12:46;;;;;;;47.35;17.00;;;7.40;99.90;;;;;;5015395;28;20404;-68
2024/03/01 01:15:11;;;;;;;43.45;17.88;;;7.40;99.90;;;;;;5018985;28;20036;-68
2024/03/01 01:17:37;;;;;;;42.38;17.33;;;7.40;99.90;;;;;;5018141;28;20844;-68
2024/03/01 01:20:04;;;;;;;46.13;18.77;;;7.50;99.90;;;;;;5017522;28;20036;-68
2024/03/01 01:22:29;;;;;;;50.17;19.67;;;7.50;99.90;;;;;;5016966;28;20797;-69
2024/03/01 01:24:55;;;;;;;44.00;18.10;;;7.50;99.90;;;;;;5016816;28;20037;-69
2024/03/01 01:27:21;;;;;;;45.53;18.05;;;7.50;99.90;;;;;;5016939;28;20033;-68
2024/03/01 01:29:47;;;;;;;46.13;18.48;;;7.60;99.90;;;;;;5018088;28;20800;-69
2024/03/01 01:32:13;;;;;;;49.17;17.92;;;7.60;99.90;;;;;;5018139;28;20029;-69
2024/03/01 01:34:39;;;;;;;48.72;18.80;;;7.70;99.90;;;;;;5015976;28;20125;-69
2024/03/01 01:37:04;;;;;;;48.65;19.95;;;7.60;99.90;;;;;;5016648;28;20034;-69
2024/03/01 01:39:31;;;;;;;46.50;18.90;;;7.60;99.90;;;;;;5016378;28;20033;-69
2024/03/01 01:41:58;;;;;;;50.15;18.15;;;7.70;99.90;;;;;;5016922;28;20037;-69
2024/03/01 01:44:24;;;;;;;44.08;18.75;;;7.70;99.90;;;;;;5016516;28;20033;-69
2024/03/01 01:46:51;;;;;;;43.22;17.83;;;7.70;99.90;;;;;;5017381;28;20064;-69
2024/03/01 01:49:18;;;;;;;46.85;18.05;;;7.80;99.90;;;;;;5016637;28;20037;-68
2024/03/01 01:51:48;;;;;;;51.30;19.13;;;7.80;99.90;;;;;;5018809;28;20029;-69
2024/03/01 01:54:15;;;;;;;49.33;19.25;;;7.80;99.90;;;;;;5015336;28;20559;-68
2024/03/01 01:56:45;;;;;;;47.47;18.08;;;7.80;99.90;;;;;;5016582;28;20037;-68
2024/03/01 01:59:13;;;;;;;55.50;19.33;;;7.80;99.90;;;;;;5019873;28;20038;-68
2024/03/01 02:01:39;;;;;;;49.60;17.60;;;7.80;99.90;;;;;;5019739;28;20328;-68
2024/03/01 02:04:05;;;;;;;64.28;21.00;;;7.90;99.90;;;;;;5019111;28;20025;-68
2024/03/01 02:06:31;;;;;;;61.38;19.52;;;7.80;99.90;;;;;;5018623;28;20065;-68
2024/03/01 02:08:57;;;;;;;60.33;22.10;;;7.70;99.90;;;;;;5020346;28;20037;-68
2024/03/01 02:11:26;;;;;;;61.95;21.25;;;7.70;99.90;;;;;;5020193;28;20114;-68
2024/03/01 02:13:55;;;;;;;56.53;19.85;;;7.70;99.90;;;;;;5020535;28;20040;-68
2024/03/01 02:16:22;;;;;;;55.20;20.25;;;7.70;99.90;;;;;;5018432;28;20065;-68
2024/03/01 02:18:50;;;;;;;54.25;20.50;;;7.80;99.90;;;;;;5017675;28;20037;-68
2024/03/01 02:21:21;;;;;;;53.50;19.00;;;7.70;99.90;;;;;;5020132;28;20037;-69
2024/03/01 02:23:47;;;;;;;51.70;19.77;;;7.80;99.90;;;;;;5018682;28;20034;-69
2024/03/01 02:26:13;;;;;;;59.28;21.15;;;7.80;99.90;;;;;;5020138;28;20559;-70
2024/03/01 02:28:46;;;;;;;56.67;20.17;;;7.80;99.90;;;;;;5020486;28;20037;-69
2024/03/01 02:31:14;;;;;;;55.10;19.80;;;7.90;99.90;;;;;;5020076;28;20044;-69
2024/03/01 02:33:40;;;;;;;53.22;20.42;;;7.90;99.90;;;;;;5018605;28;20033;-69
2024/03/01 02:36:06;;;;;;;58.00;22.77;;;8.00;99.90;;;;;;5018347;28;20582;-69
2024/03/01 02:38:32;;;;;;;63.60;21.77;;;8.00;99.90;;;;;;5019462;28;20102;-69
2024/03/01 02:40:58;;;;;;;62.08;20.83;;;8.00;99.90;;;;;;5019990;28;20065;-69
2024/03/01 02:43:24;;;;;;;62.30;21.90;;;8.00;99.90;;;;;;4978813;28;1202669;-69
2024/03/01 02:45:50;;;;;;;64.15;21.15;;;8.00;99.90;;;;;;5022465;28;20029;-69
2024/03/01 02:48:16;;;;;;;56.10;21.25;;;8.00;99.90;;;;;;5014880;28;20040;-69
2024/03/01 02:50:42;;;;;;;58.53;22.42;;;7.90;99.90;;;;;;5019697;28;20079;-69
2024/03/01 02:53:07;;;;;;;59.85;21.33;;;8.00;99.90;;;;;;5020251;28;20041;-69
2024/03/01 02:55:33;;;;;;;57.17;20.98;;;8.00;99.90;;;;;;5018650;28;20041;-69
2024/03/01 02:57:59;;;;;;;52.50;21.20;;;8.00;99.90;;;;;;5020619;28;20037;-69
2024/03/01 03:00:27;;;;;;;60.10;23.60;;;8.10;99.90;;;;;;5022374;28;20349;-69
2024/03/01 03:02:53;;;;;;;54.80;21.05;;;8.10;99.90;;;;;;5020713;28;20045;-69
2024/03/01 03:05:20;;;;;;;60.38;22.05;;;8.10;99.90;;;;;;5020760;28;20035;-69
2024/03/01 03:07:50;;;;;;;62.72;23.02;;;8.10;99.90;;;;;;5019043;28;20029;-69
2024/03/01 03:10:16;;;;;;;59.25;22.50;;;8.20;99.90;;;;;;5019073;28;20580;-68
2024/03/01 03:12:44;;;;;;;70.07;25.13;;;8.20;99.90;;;;;;5021293;28;20037;-69
2024/03/01 03:15:10;;;;;;;61.22;23.27;;;8.20;99.90;;;;;;5022019;28;20043;-69
2024/03/01 03:17:37;;;;;;;59.80;21.98;;;8.20;99.90;;;;;;5020390;28;20051;-69
2024/03/01 03:20:09;;;;;;;65.25;24.02;;;8.30;99.90;;;;;;5020386;28;20083;-69
2024/03/01 03:22:40;;;;;;;56.55;21.58;;;8.30;99.90;;;;;;5018754;28;20116;-68
2024/03/01 03:25:06;;;;;;;64.38;21.80;;;8.30;99.90;;;;;;5018269;28;20030;-69
2024/03/01 03:27:32;;;;;;;66.95;23.30;;;8.30;99.90;;;;;;5020161;28;20021;-69
2024/03/01 03:29:58;;;;;;;62.63;23.17;;;8.30;99.90;;;;;;5019677;28;20025;-69
2024/03/01 03:32:25;;;;;;;61.35;23.45;;;8.40;99.90;;;;;;5020659;28;20480;-69
2024/03/01 03:34:51;;;;;;;74.78;24.40;;;8.40;99.90;;;;;;5019674;28;20034;-69
2024/03/01 03:37:17;;;;;;;64.22;21.60;;;8.40;99.90;;;;;;5020862;28;20471;-69
2024/03/01 03:39:43;;;;;;;66.97;24.13;;;8.30;99.90;;;;;;5019819;28;20042;-69
2024/03/01 03:42:08;;;;;;;58.13;23.33;;;8.30;99.90;;;;;;5022060;28;20038;-69
2024/03/01 03:44:34;;;;;;;63.97;22.65;;;8.20;99.90;;;;;;5020245;28;20055;-69
2024/03/01 03:47:00;;;;;;;68.28;24.85;;;8.30;99.90;;;;;;5017657;28;20025;-69
2024/03/01 03:49:26;;;;;;;64.80;22.55;;;8.20;99.90;;;;;;5019092;28;20120;-68
2024/03/01 03:51:52;;;;;;;62.58;22.75;;;8.30;99.90;;;;;;5017771;28;20033;-68
2024/03/01 03:54:18;;;;;;;73.32;25.90;;;8.30;99.90;;;;;;5018178;28;20038;-68
2024/03/01 03:56:44;;;;;;;62.53;23.60;;;8.30;99.90;;;;;;5019967;28;20037;-69
2024/03/01 03:59:10;;;;;;;59.95;21.58;;;8.40;99.90;;;;;;5021167;28;20052;-69
2024/03/01 04:01:36;;;;;;;68.55;23.17;;;8.40;99.90;;;;;;5016169;28;20141;-69
2024/03/01 04:04:03;;;;;;;56.45;22.15;;;8.40;99.90;;;;;;5016484;28;20726;-69
2024/03/01 04:06:29;;;;;;;67.63;24.52;;;8.50;99.90;;;;;;5018202;28;20030;-69
2024/03/01 04:08:55;;;;;;;73.03;24.67;;;8.50;99.90;;;;;;5017887;28;20040;-69
2024/03/01 04:11:21;;;;;;;61.78;23.20;;;8.60;99.90;;;;;;5019594;28;20033;-69
2024/03/01 04:13:47;;;;;;;66.50;24.55;;;8.60;99.90;;;;;;5019480;28;20637;-69
2024/03/01 04:16:13;;;;;;;66.13;23.70;;;8.60;99.90;;;;;;5014407;28;20033;-69
2024/03/01 04:18:39;;;;;;;67.80;24.92;;;8.60;99.90;;;;;;5015632;28;20103;-69
2024/03/01 04:21:05;;;;;;;61.25;22.83;;;8.60;99.90;;;;;;5018079;28;20021;-69
2024/03/01 04:23:34;;;;;;;69.18;25.85;;;8.60;99.90;;;;;;5018554;28;20026;-68
2024/03/01 04:26:00;;;;;;;76.80;26.30;;;8.70;99.90;;;;;;5014655;28;20104;-68
2024/03/01 04:28:26;;;;;;;69.75;24.67;;;8.70;99.90;;;;;;5016557;28;20047;-69
2024/03/01 04:30:53;;;;;;;68.95;24.05;;;8.60;99.90;;;;;;5016775;28;20030;-69
2024/03/01 04:33:19;;;;;;;77.75;25.55;;;8.60;99.90;;;;;;5020219;28;20060;-69
2024/03/01 04:35:45;;;;;;;63.83;24.42;;;8.60;99.90;;;;;;5018530;28;20030;-69
2024/03/01 04:38:13;;;;;;;68.57;24.48;;;8.70;99.90;;;;;;5018395;28;20489;-69
2024/03/01 04:40:40;;;;;;;74.90;25.45;;;8.70;99.90;;;;;;5018377;28;20707;-68
2024/03/01 04:43:06;;;;;;;75.50;25.33;;;8.70;99.90;;;;;;5019581;28;20041;-69
2024/03/01 04:45:33;;;;;;;78.68;25.00;;;8.60;99.90;;;;;;5019327;28;20140;-68
2024/03/01 04:47:59;;;;;;;74.40;25.42;;;8.60;99.90;;;;;;5014619;28;20505;-68
2024/03/01 04:50:25;;;;;;;66.10;26.05;;;8.60;99.90;;;;;;5013151;28;20038;-68
2024/03/01 04:52:51;;;;;;;67.50;27.08;;;8.60;99.90;;;;;;5014473;28;20039;-68
2024/03/01 04:55:18;;;;;;;60.45;22.75;;;8.60;99.90;;;;;;5017402;28;20042;-68
2024/03/01 04:57:43;;;;;;;71.60;24.90;;;8.60;99.90;;;;;;5018138;28;20036;-68
2024/03/01 05:00:13;;;;;;;70.05;24.88;;;8.60;99.90;;;;;;5017874;28;20582;-68
2024/03/01 05:02:42;;;;;;;70.35;25.30;;;8.70;99.90;;;;;;5015437;28;20034;-68
2024/03/01 05:05:14;;;;;;;71.70;25.70;;;8.60;99.90;;;;;;5030365;28;20029;-68
2024/03/01 05:07:41;;;;;;;68.00;24.80;;;8.50;99.90;;;;;;5016414;28;20405;-68
2024/03/01 05:10:10;;;;;;;67.50;24.48;;;8.50;99.90;;;;;;5017727;28;20040;-68
2024/03/01 05:12:41;;;;;;;72.72;26.48;;;8.60;99.90;;;;;;5018733;28;20025;-68
2024/03/01 05:15:08;;;;;;;66.43;24.88;;;8.60;99.90;;;;;;5017074;28;20452;-69
2024/03/01 05:17:40;;;;;;;68.55;24.00;;;8.60;99.90;;;;;;5016612;28;20025;-68
2024/03/01 05:20:10;;;;;;;64.53;23.05;;;8.70;99.90;;;;;;5016349;28;20094;-68
2024/03/01 05:22:40;;;;;;;70.32;23.80;;;8.70;99.90;;;;;;5014229;28;20388;-69
2024/03/01 05:25:16;;;;;;;70.15;25.63;;;8.80;99.90;;;;;;5014320;28;20034;-69
2024/03/01 05:27:42;;;;;;;68.20;26.13;;;8.90;99.90;;;;;;5012412;28;20687;-68
2024/03/01 05:30:10;;;;;;;68.10;24.45;;;8.90;99.90;;;;;;5014163;28;20064;-69
2024/03/01 05:32:40;;;;;;;62.55;24.38;;;8.90;99.90;;;;;;5014169;28;20021;-69
2024/03/01 05:35:07;;;;;;;66.32;23.90;;;8.90;99.90;;;;;;5016763;28;20032;-68
2024/03/01 05:37:34;;;;;;;69.72;25.30;;;8.90;99.90;;;;;;5013599;28;20774;-69
2024/03/01 05:40:04;;;;;;;67.25;23.92;;;8.80;99.90;;;;;;5018535;28;20036;-68
2024/03/01 05:42:30;;;;;;;68.88;26.17;;;8.80;99.90;;;;;;5013406;28;20040;-74
2024/03/01 05:44:56;;;;;;;66.75;24.00;;;8.90;99.90;;;;;;5016376;28;20030;-74
2024/03/01 05:47:22;;;;;;;73.10;24.98;;;8.80;99.90;;;;;;5016203;28;20052;-73
2024/03/01 05:49:48;;;;;;;58.33;23.45;;;8.70;99.90;;;;;;5016030;28;20064;-74
2024/03/01 05:52:15;;;;;;;65.53;24.95;;;8.70;99.90;;;;;;5016382;28;20833;-74
2024/03/01 05:54:40;;;;;;;71.18;26.50;;;8.80;99.90;;;;;;5016791;28;20040;-74
2024/03/01 05:57:08;;;;;;;65.47;25.10;;;8.80;99.90;;;;;;5018396;28;20029;-74
2024/03/01 05:59:34;;;;;;;58.80;23.83;;;8.80;99.90;;;;;;5016590;28;20030;-74
2024/03/01 06:02:00;;;;;;;68.93;25.15;;;8.80;99.90;;;;;;5016737;28;20313;-74
2024/03/01 06:04:26;;;;;;;61.50;24.05;;;8.80;99.90;;;;;;5017075;28;20036;-74
2024/03/01 06:06:52;;;;;;;61.17;25.65;;;8.80;99.90;;;;;;5014112;28;20033;-74
2024/03/01 06:09:18;;;;;;;65.55;23.80;;;8.80;99.90;;;;;;5012068;28;20112;-74
2024/03/01 06:11:44;;;;;;;61.53;24.88;;;8.80;99.90;;;;;;5016061;28;20547;-74
2024/03/01 06:14:11;;;;;;;65.10;25.17;;;8.90;99.90;;;;;;5016573;28;20033;-74
2024/03/01 06:16:37;;;;;;;67.35;25.45;;;8.90;99.90;;;;;;5015240;28;20056;-74
2024/03/01 06:19:03;;;;;;;65.93;25.15;;;8.80;99.90;;;;;;5016996;28;20029;-74
2024/03/01 06:21:29;;;;;;;74.22;25.77;;;8.80;99.90;;;;;;5015654;28;20378;-74
2024/03/01 06:23:54;;;;;;;61.42;24.08;;;8.80;99.90;;;;;;5017072;28;20527;-74
2024/03/01 06:26:22;;;;;;;74.15;25.92;;;8.70;99.90;;;;;;4992447;28;20026;-79
2024/03/01 06:28:48;;;;;;;68.95;25.33;;;8.80;99.90;;;;;;5015254;28;20022;-74
2024/03/01 06:31:13;;;;;;;60.25;26.05;;;8.80;99.90;;;;;;5015518;28;20088;-75
2024/03/01 06:33:41;;;;;;;62.97;24.23;;;8.70;99.90;;;;;;5017907;28;20046;-75
2024/03/01 06:36:08;;;;;;;60.80;23.30;;;8.60;99.90;;;;;;5020555;28;20041;-75
2024/03/01 06:38:36;;;;;;;64.72;23.33;;;8.60;99.90;;;;;;5021162;28;20168;-75
2024/03/01 06:41:03;;;;;;;68.20;24.95;;;8.60;99.90;;;;;;5018473;28;20121;-75
2024/03/01 06:43:30;;;;;;;58.13;23.70;;;8.60;99.90;;;;;;5021206;28;20033;-75
2024/03/01 06:45:55;;;;;;;68.85;26.02;;;8.60;99.90;;;;;;5021060;28;20166;-75
2024/03/01 06:48:21;;;;;;;58.90;23.70;;;8.60;99.90;;;;;;5019644;28;20033;-71
2024/03/01 06:50:47;;;;;;;67.13;24.70;;;8.70;99.90;;;;;;5020062;28;20132;-72
2024/03/01 06:53:13;;;;;;;77.32;26.90;;;8.70;99.90;;;;;;5021870;28;20125;-70
2024/03/01 06:55:39;;;;;;;61.15;24.45;;;8.80;99.90;;;;;;5017187;28;20136;-72
2024/03/01 06:58:05;;;;;;;67.60;24.65;;;8.80;99.90;;;;;;5015746;28;20698;-71
2024/03/01 07:00:32;;;;;;;67.32;24.38;;;8.80;99.90;;;;;;5013202;28;20037;-71
2024/03/01 07:02:58;;;;;;;68.40;25.90;;;8.80;99.90;;;;;;5019531;28;20014;-71
2024/03/01 07:05:24;;;;;;;75.95;25.08;;;8.90;99.90;;;;;;5019691;28;20025;-70
2024/03/01 07:07:50;;;;;;;65.53;23.00;;;8.90;99.90;;;;;;5017476;28;20079;-71
2024/03/01 07:10:15;;;;;;;62.58;25.52;;;9.00;99.90;;;;;;5020516;28;20041;-72
2024/03/01 07:12:41;;;;;;;63.20;24.45;;;9.10;99.90;;;;;;5019110;28;20029;-71
2024/03/01 07:15:08;;;;;;;67.38;24.40;;;9.10;99.90;;;;;;5019174;28;20041;-71
2024/03/01 07:17:34;;;;;;;60.53;24.45;;;9.20;99.90;;;;;;5017582;28;20026;-71
2024/03/01 07:20:00;;;;;;;63.90;24.92;;;9.20;99.90;;;;;;5018300;28;20040;-71
2024/03/01 07:22:26;;;;;;;54.80;23.38;;;9.20;99.90;;;;;;5019160;28;20025;-71
2024/03/01 07:24:52;;;;;;;51.83;23.10;;;9.20;99.90;;;;;;4997957;28;20129;-66
2024/03/01 07:27:18;;;;;;;53.58;22.80;;;9.20;99.90;;;;;;5005299;28;20082;-66
2024/03/01 07:29:44;;;;;;;59.75;25.05;;;9.20;99.90;;;;;;5005940;28;20556;-66
2024/03/01 07:32:10;;;;;;;52.85;21.98;;;9.20;99.90;;;;;;5016135;28;20547;-67
2024/03/01 07:34:35;;;;;;;57.35;23.63;;;9.20;99.90;;;;;;5017765;28;20056;-66
2024/03/01 07:37:01;;;;;;;53.30;22.55;;;9.20;99.90;;;;;;5019169;28;20068;-66
2024/03/01 07:39:27;;;;;;;55.90;23.35;;;9.20;99.90;;;;;;5019948;28;20092;-66
2024/03/01 07:41:53;;;;;;;55.03;22.88;;;9.20;99.90;;;;;;5018250;28;20497;-66
2024/03/01 07:44:19;;;;;;;57.05;23.65;;;9.00;99.90;;;;;;5017391;28;20033;-66
2024/03/01 07:46:45;;;;;;;53.70;22.60;;;9.10;99.90;;;;;;5017935;28;20029;-65
2024/03/01 07:49:14;;;;;;;53.55;24.23;;;9.00;99.90;;;;;;5019229;28;20037;-66
2024/03/01 07:51:40;;;;;;;53.90;23.58;;;9.10;99.90;;;;;;5016139;28;20030;-65
2024/03/01 07:54:06;;;;;;;55.38;22.42;;;9.00;99.90;;;;;;5019127;28;20041;-65
2024/03/01 07:56:36;;;;;;;62.08;23.08;;;9.00;99.90;;;;;;5014905;28;20059;-65
2024/03/01 07:59:03;;;;;;;59.72;25.02;;;8.90;99.90;;;;;;5016580;28;20071;-65
2024/03/01 08:01:30;;;;;;;61.35;23.65;;;9.00;99.90;;;;;;5014524;28;20036;-65
2024/03/01 08:03:56;;;;;;;52.00;23.20;;;9.20;99.90;;;;;;5015669;28;20115;-66
2024/03/01 08:06:22;;;;;;;60.92;22.63;;;9.30;99.90;;;;;;5018235;28;20112;-65
2024/03/01 08:08:51;;;;;;;51.45;21.73;;;9.30;99.90;;;;;;5018421;28;20103;-66
2024/03/01 08:11:41;;;;;;;56.33;22.38;;;9.20;99.90;;;;;;5019130;28;20045;-65
2024/03/01 08:14:22;;;;;;;46.65;20.95;;;8.90;99.90;;;;;;5017794;28;20555;-66
2024/03/01 08:16:52;;;;;;;50.83;20.40;;;8.70;99.90;;;;;;5016997;28;20029;-65
2024/03/01 08:19:21;;;;;;;46.72;20.27;;;8.80;99.90;;;;;;5012967;28;20034;-66
2024/03/01 08:21:48;;;;;;;48.00;20.23;;;8.90;99.90;;;;;;5018199;28;20034;-68
2024/03/01 08:24:24;;;;;;;48.40;21.77;;;9.00;99.90;;;;;;5019699;28;20120;-67
2024/03/01 08:26:50;;;;;;;43.47;19.48;;;9.10;99.90;;;;;;5015441;28;20049;-69
2024/03/01 08:29:17;;;;;;;43.92;19.83;;;9.20;99.90;;;;;;5018460;28;20116;-71
2024/03/01 08:31:43;;;;;;;40.65;19.27;;;9.10;99.90;;;;;;5016279;28;20033;-66
2024/03/01 08:34:24;;;;;;;44.50;19.08;;;9.20;99.90;;;;;;5018620;28;20028;-71
2024/03/01 08:36:52;;;;;;;44.85;19.05;;;9.20;99.90;;;;;;5017552;28;20030;-67
2024/03/01 08:39:25;;;;;;;38.28;19.30;;;9.00;99.90;;;;;;5018285;28;20038;-66
2024/03/01 08:41:55;;;;;;;44.33;19.38;;;9.10;99.90;;;;;;5014604;28;20030;-66
2024/03/01 08:44:50;;;;;;;42.80;19.50;;;9.30;99.90;;;;;;5015286;28;20871;-64
2024/03/01 08:47:32;;;;;;;39.97;18.13;;;9.50;99.90;;;;;;5018391;28;20080;-67
2024/03/01 08:50:23;;;;;;;39.38;18.05;;;9.90;99.90;;;;;;5017873;28;20501;-66
2024/03/01 08:52:49;;;;;;;35.72;18.05;;;10.30;99.90;;;;;;5011628;28;20106;-69
2024/03/01 08:55:37;;;;;;;38.55;17.73;;;10.40;99.90;;;;;;5017759;28;20117;-67
2024/03/01 08:58:03;;;;;;;34.13;17.27;;;10.60;99.90;;;;;;5014766;28;20040;-67
2024/03/01 09:00:46;;;;;;;36.85;15.95;;;10.80;99.90;;;;;;5016636;28;20767;-67
2024/03/01 09:03:23;;;;;;;35.13;16.33;;;11.00;99.90;;;;;;5017578;28;20057;-67
2024/03/01 09:05:52;;;;;;;32.10;16.23;;;11.10;99.90;;;;;;5018076;28;20040;-67
2024/03/01 09:08:23;;;;;;;32.97;16.02;;;11.10;99.90;;;;;;5019275;28;20078;-67
2024/03/01 09:10:53;;;;;;;33.75;16.63;;;11.00;99.90;;;;;;5017328;28;20038;-67
2024/03/01 09:13:19;;;;;;;30.42;15.55;;;11.20;99.90;;;;;;5014854;28;20042;-68
2024/03/01 09:15:46;;;;;;;32.88;15.27;;;11.60;99.90;;;;;;5015865;28;20592;-69
2024/03/01 09:18:31;;;;;;;35.30;15.40;;;12.10;99.90;;;;;;5031576;28;20052;-68
2024/03/01 09:20:57;;;;;;;32.00;14.52;;;12.60;99.90;;;;;;5015744;28;20041;-68
2024/03/01 09:23:23;;;;;;;33.38;16.50;;;13.10;99.90;;;;;;5017164;28;20083;-68
2024/03/01 09:25:51;;;;;;;33.58;15.43;;;13.60;99.90;;;;;;5016784;28;20034;-68
2024/03/01 09:28:21;;;;;;;27.75;13.55;;;14.10;99.90;;;;;;5015398;28;20087;-68
2024/03/01 09:30:50;;;;;;;30.80;14.18;;;14.60;99.90;;;;;;5007769;28;20412;-69
2024/03/01 09:33:18;;;;;;;26.83;13.30;;;14.50;99.90;;;;;;5014124;28;20156;-68
2024/03/01 09:35:45;;;;;;;31.70;14.40;;;13.90;99.90;;;;;;4987630;28;20974;-68
2024/03/01 09:38:14;;;;;;;30.60;14.07;;;13.80;99.90;;;;;;5008778;28;20175;-69
2024/03/01 09:41:18;;;;;;;29.65;15.02;;;13.00;99.90;;;;;;5015770;28;20497;-69
2024/03/01 09:44:04;;;;;;;30.38;14.02;;;12.70;99.90;;;;;;5014334;28;20037;-69
2024/03/01 09:47:08;;;;;;;30.93;13.50;;;12.50;99.90;;;;;;5014150;28;20894;-79
2024/03/01 09:50:04;;;;;;;29.20;13.88;;;12.70;99.90;;;;;;5015970;28;20283;-69
2024/03/01 09:53:07;;;;;;;30.73;13.90;;;13.00;99.90;;;;;;5019101;28;20023;-67
2024/03/01 09:55:51;;;;;;;28.83;12.65;;;13.20;99.90;;;;;;5005891;28;20120;-77
2024/03/01 09:58:39;;;;;;;24.73;12.35;;;13.90;99.90;;;;;;5013423;28;20078;-68
2024/03/01 10:01:17;;;;;;;28.30;13.02;;;14.20;99.90;;;;;;5016968;28;20032;-68
2024/03/01 10:04:04;;;;;;;25.95;13.75;;;14.50;99.90;;;;;;5016806;28;20060;-68
2024/03/01 10:06:35;;;;;;;28.42;14.20;;;14.10;99.90;;;;;;5017743;28;20095;-68
2024/03/01 10:09:15;;;;;;;27.65;14.85;;;13.60;99.90;;;;;;5021407;28;20029;-68
2024/03/01 10:12:06;;;;;;;26.45;12.65;;;13.40;99.90;;;;;;5018143;28;20044;-68
2024/03/01 10:14:38;;;;;;;25.65;13.43;;;13.00;99.90;;;;;;5018434;28;20025;-68
2024/03/01 10:17:26;;;;;;;27.70;12.98;;;12.70;99.90;;;;;;5017952;28;20029;-70
2024/03/01 10:20:06;;;;;;;25.67;13.65;;;12.70;99.90;;;;;;5017981;28;20044;-66
2024/03/01 10:22:42;;;;;;;29.77;12.75;;;12.80;99.90;;;;;;5020660;28;20025;-69
2024/03/01 10:25:14;;;;;;;29.48;12.75;;;12.90;99.90;;;;;;5018197;28;20505;-68
2024/03/01 10:27:48;;;;;;;23.08;11.63;;;12.80;99.90;;;;;;5016683;28;20046;-67
2024/03/01 10:30:20;;;;;;;30.42;13.35;;;12.70;99.90;;;;;;5015134;28;20037;-66
2024/03/01 10:33:05;;;;;;;28.65;13.30;;;12.90;99.90;;;;;;5021029;28;20219;-66
2024/03/01 10:35:44;;;;;;;25.20;12.77;;;13.20;99.90;;;;;;5019468;28;20060;-66
2024/03/01 10:38:33;;;;;;;25.60;12.80;;;13.50;99.90;;;;;;5019035;28;20041;-67
2024/03/01 10:41:17;;;;;;;30.48;13.63;;;13.70;99.90;;;;;;5018460;28;20033;-67
2024/03/01 10:44:09;;;;;;;22.98;12.30;;;13.70;99.90;;;;;;5016792;28;20072;-67
2024/03/01 10:47:13;;;;;;;31.65;14.25;;;13.70;99.90;;;;;;5016922;28;20034;-67
2024/03/01 10:49:49;;;;;;;26.50;12.98;;;13.50;99.90;;;;;;5013732;28;20025;-67
2024/03/01 10:52:17;;;;;;;24.98;12.05;;;13.30;99.90;;;;;;5018063;28;20037;-67
2024/03/01 10:54:50;;;;;;;28.98;12.95;;;13.30;99.90;;;;;;5016221;28;20037;-67
2024/03/01 10:57:19;;;;;;;27.75;13.32;;;13.30;99.90;;;;;;5017858;28;20777;-66
2024/03/01 11:00:06;;;;;;;24.77;12.10;;;13.30;99.90;;;;;;5016778;28;20651;-67
2024/03/01 11:03:05;;;;;;;28.02;13.07;;;13.30;99.90;;;;;;5018272;28;20030;-66
2024/03/01 11:05:43;;;;;;;25.83;12.57;;;13.30;99.90;;;;;;5019593;28;20032;-67
2024/03/01 11:08:21;;;;;;;30.10;12.75;;;13.40;99.90;;;;;;5019741;28;20034;-67
2024/03/01 11:11:10;;;;;;;24.55;12.20;;;13.40;99.90;;;;;;5018111;28;20092;-66
2024/03/01 11:13:38;;;;;;;28.25;13.30;;;13.50;99.90;;;;;;5015554;28;20041;-66
2024/03/01 11:16:08;;;;;;;25.67;12.52;;;13.60;99.90;;;;;;5016888;28;20037;-66
2024/03/01 11:18:44;;;;;;;24.77;12.45;;;13.60;99.90;;;;;;5016111;28;20026;-67
2024/03/01 11:21:13;;;;;;;28.98;12.90;;;13.60;99.90;;;;;;5018154;28;20145;-67
2024/03/01 11:24:34;;;;;;;26.23;12.93;;;13.60;99.90;;;;;;5017787;28;20045;-66
2024/03/01 11:27:04;;;;;;;23.92;12.73;;;13.50;99.90;;;;;;5014289;28;20037;-67
2024/03/01 11:29:45;;;;;;;28.58;13.30;;;13.50;99.90;;;;;;5017561;28;20609;-67
2024/03/01 11:32:24;;;;;;;27.83;13.00;;;13.60;99.90;;;;;;5016813;28;20060;-67
2024/03/01 11:35:18;;;;;;;31.48;14.25;;;13.70;99.90;;;;;;5020024;28;20052;-67
2024/03/01 11:38:05;;;;;;;30.10;14.32;;;13.70;99.90;;;;;;5017422;28;20133;-67
2024/03/01 11:41:05;;;;;;;27.90;13.38;;;13.70;99.90;;;;;;5015130;28;20112;-67
2024/03/01 11:43:49;;;;;;;25.55;13.15;;;13.80;99.90;;;;;;5015618;28;20464;-67
2024/03/01 11:46:27;;;;;;;30.60;13.48;;;13.80;99.90;;;;;;5018270;28;20036;-67
2024/03/01 11:49:14;;;;;;;31.38;13.90;;;13.80;99.90;;;;;;5017757;28;20045;-67
2024/03/01 11:52:18;;;;;;;28.35;14.00;;;13.60;99.90;;;;;;5015737;28;20037;-67
2024/03/01 11:55:03;;;;;;;28.00;14.23;;;13.60;99.90;;;;;;5013950;28;20036;-67
2024/03/01 11:57:52;;;;;;;29.60;13.65;;;13.60;99.90;;;;;;5015197;28;20030;-67
2024/03/01 12:00:32;;;;;;;25.50;13.13;;;13.70;99.90;;;;;;5016903;28;20034;-67
2024/03/01 12:03:06;;;;;;;24.90;12.82;;;13.50;99.90;;;;;;5018083;28;20026;-67
2024/03/01 12:06:31;;;;;;;26.55;13.57;;;13.40;99.90;;;;;;5018136;28;20442;-67
2024/03/01 12:09:15;;;;;;;27.85;13.48;;;13.40;99.90;;;;;;4976278;28;20118;-66
2024/03/01 12:12:21;;;;;;;24.83;12.90;;;13.40;99.90;;;;;;5010961;28;20038;-67
2024/03/01 12:14:58;;;;;;;29.70;13.30;;;13.50;99.90;;;;;;5011457;28;20050;-67
2024/03/01 12:17:37;;;;;;;29.70;13.82;;;13.50;99.90;;;;;;5017247;28;20117;-67
2024/03/01 12:20:09;;;;;;;27.23;13.73;;;13.40;99.90;;;;;;5017801;28;20727;-67
2024/03/01 12:22:46;;;;;;;24.55;12.57;;;13.40;99.90;;;;;;5016153;28;20072;-67
2024/03/01 12:25:12;;;;;;;27.40;13.75;;;13.40;99.90;;;;;;5015853;28;20026;-67
2024/03/01 12:28:00;;;;;;;31.23;13.77;;;13.40;99.90;;;;;;5016139;28;20053;-67
2024/03/01 12:30:28;;;;;;;25.45;12.75;;;13.50;99.90;;;;;;5014129;28;20038;-67
2024/03/01 12:33:20;;;;;;;21.15;11.50;;;13.60;99.90;;;;;;5016166;28;20493;-67
2024/03/01 12:35:59;;;;;;;25.65;12.07;;;13.60;99.90;;;;;;5014890;28;20041;-67
2024/03/01 12:38:33;;;;;;;22.83;12.13;;;13.60;99.90;;;;;;5013283;28;20034;-67
2024/03/01 12:41:16;;;;;;;25.67;12.40;;;13.70;99.90;;;;;;5015858;28;20037;-65
2024/03/01 12:43:41;;;;;;;24.55;12.18;;;13.80;99.90;;;;;;5015428;28;20560;-67
2024/03/01 12:46:25;;;;;;;26.08;13.93;;;13.80;99.90;;;;;;5017221;28;20030;-67
2024/03/01 12:49:13;;;;;;;30.17;13.40;;;13.80;99.90;;;;;;5018422;28;20060;-67
2024/03/01 12:52:00;;;;;;;27.63;13.73;;;13.70;99.90;;;;;;5013436;28;20036;-67
2024/03/01 12:54:40;;;;;;;27.55;12.48;;;13.60;99.90;;;;;;5014657;28;20137;-67